Time;durP1;ratioP1;P1;durP2;ratioP2;P2;SDS_P1;SDS_P2;PMS_P1;PMS_P2;Temp;Humidity;BMP_temperature;BMP_pressure;BME280_temperature;BME280_humidity;BME280_pressure;Samples;Min_cycle;Max_cycle;Signal;HPM_P1;HPM_P2
2022/10/04 00:00:24;;;;;;;5.33;3.30;;;;;;;;;;5074991;28;20199;-47
2022/10/04 00:02:51;;;;;;;5.73;3.20;;;;;;;;;;5074555;28;20235;-47
2022/10/04 00:05:18;;;;;;;5.37;3.30;;;;;;;;;;5074778;28;20196;-47
2022/10/04 00:07:46;;;;;;;6.20;3.17;;;;;;;;;;5074599;28;20597;-47
2022/10/04 00:10:18;;;;;;;8.67;3.57;;;;;;;;;;5074733;28;20211;-47
2022/10/04 00:12:47;;;;;;;7.63;3.60;;;;;;;;;;5074586;28;20290;-46
2022/10/04 00:15:18;;;;;;;9.43;3.10;;;;;;;;;;5074748;28;20203;-47
2022/10/04 00:17:44;;;;;;;3.67;2.73;;;;;;;;;;5074552;28;20200;-46
2022/10/04 00:20:25;;;;;;;5.87;2.93;;;;;;;;;;5074468;28;20195;-46
2022/10/04 00:23:06;;;;;;;6.43;3.33;;;;;;;;;;5074248;28;20689;-46
2022/10/04 00:25:35;;;;;;;4.43;3.23;;;;;;;;;;5074264;28;20203;-46
2022/10/04 00:28:27;;;;;;;6.90;3.90;;;;;;;;;;5074475;28;20569;-46
2022/10/04 00:31:07;;;;;;;7.17;3.87;;;;;;;;;;5074369;28;20210;-46
2022/10/04 00:33:34;;;;;;;4.13;3.17;;;;;;;;;;5074169;28;20198;-47
2022/10/04 00:36:00;;;;;;;5.60;3.60;;;;;;;;;;5073880;28;20195;-46
2022/10/04 00:38:28;;;;;;;5.47;3.43;;;;;;;;;;5074273;28;20203;-46
2022/10/04 00:40:59;;;;;;;6.27;3.10;;;;;;;;;;5074069;28;20206;-46
2022/10/04 00:43:28;;;;;;;4.10;2.90;;;;;;;;;;5074120;28;20237;-46
2022/10/04 00:45:57;;;;;;;8.00;3.17;;;;;;;;;;5074330;28;20200;-46
2022/10/04 00:48:45;;;;;;;4.07;2.87;;;;;;;;;;5074016;28;20294;-46
2022/10/04 00:51:13;;;;;;;6.37;3.40;;;;;;;;;;5069142;28;20226;-47
2022/10/04 00:53:44;;;;;;;7.00;3.47;;;;;;;;;;5073865;28;20200;-47
2022/10/04 00:56:14;;;;;;;4.87;3.13;;;;;;;;;;5074092;28;20207;-45
2022/10/04 00:58:45;;;;;;;9.23;3.53;;;;;;;;;;5073834;28;20195;-46
2022/10/04 01:01:11;;;;;;;10.07;3.70;;;;;;;;;;5073936;28;20227;-46
2022/10/04 01:03:39;;;;;;;8.03;3.33;;;;;;;;;;5073348;28;20235;-46
2022/10/04 01:06:06;;;;;;;6.60;3.70;;;;;;;;;;5073674;28;20290;-47
2022/10/04 01:08:34;;;;;;;8.97;3.37;;;;;;;;;;5073517;28;20594;-46
2022/10/04 01:11:02;;;;;;;5.67;3.30;;;;;;;;;;5073647;28;20203;-46
2022/10/04 01:13:31;;;;;;;6.90;4.00;;;;;;;;;;5073616;28;20209;-46
2022/10/04 01:15:59;;;;;;;9.70;3.93;;;;;;;;;;5073490;28;20195;-46
2022/10/04 01:18:29;;;;;;;4.83;3.17;;;;;;;;;;5073347;28;20195;-46
2022/10/04 01:20:57;;;;;;;7.67;3.70;;;;;;;;;;5073238;28;20528;-46
2022/10/04 01:23:35;;;;;;;7.30;3.80;;;;;;;;;;5073397;28;20319;-46
2022/10/04 01:26:02;;;;;;;6.60;3.33;;;;;;;;;;5073313;28;20260;-46
2022/10/04 01:28:29;;;;;;;6.13;3.67;;;;;;;;;;5073274;28;20237;-46
2022/10/04 01:30:55;;;;;;;5.50;3.27;;;;;;;;;;5073136;28;20539;-46
2022/10/04 01:33:21;;;;;;;8.53;4.10;;;;;;;;;;5073209;28;20566;-46
2022/10/04 01:35:47;;;;;;;5.80;3.50;;;;;;;;;;5073074;28;20204;-46
2022/10/04 01:38:13;;;;;;;4.60;3.30;;;;;;;;;;5073347;28;20223;-46
2022/10/04 01:40:42;;;;;;;4.33;3.20;;;;;;;;;;5073171;28;20202;-46
2022/10/04 01:43:10;;;;;;;7.73;3.73;;;;;;;;;;5072875;28;20749;-46
2022/10/04 01:45:38;;;;;;;7.57;4.97;;;;;;;;;;5073053;28;20674;-46
2022/10/04 01:48:08;;;;;;;7.60;3.90;;;;;;;;;;5071972;28;20196;-46
2022/10/04 01:50:36;;;;;;;11.00;3.60;;;;;;;;;;5072979;28;20462;-46
2022/10/04 01:53:09;;;;;;;7.83;3.57;;;;;;;;;;5072816;28;20198;-46
2022/10/04 01:55:36;;;;;;;7.23;3.57;;;;;;;;;;5072749;28;20206;-46
2022/10/04 01:58:08;;;;;;;5.93;3.07;;;;;;;;;;5072622;28;20203;-46
2022/10/04 02:00:35;;;;;;;4.80;2.70;;;;;;;;;;5072626;28;20203;-46
2022/10/04 02:03:03;;;;;;;6.53;3.00;;;;;;;;;;5072426;28;20247;-47
2022/10/04 02:05:30;;;;;;;4.90;3.37;;;;;;;;;;5072555;28;20226;-46
2022/10/04 02:08:01;;;;;;;6.67;3.17;;;;;;;;;;5072399;28;20226;-46
2022/10/04 02:10:29;;;;;;;4.13;3.13;;;;;;;;;;5072705;28;20558;-47
2022/10/04 02:12:56;;;;;;;9.07;3.50;;;;;;;;;;5072268;28;20195;-46
2022/10/04 02:15:25;;;;;;;9.07;3.70;;;;;;;;;;5072321;28;20261;-46
2022/10/04 02:17:52;;;;;;;6.60;3.30;;;;;;;;;;5072220;28;20223;-46
2022/10/04 02:20:20;;;;;;;7.70;3.33;;;;;;;;;;5072355;28;20183;-46
2022/10/04 02:22:48;;;;;;;7.67;3.83;;;;;;;;;;5072009;28;20200;-46
2022/10/04 02:25:15;;;;;;;7.00;3.23;;;;;;;;;;5072307;28;20223;-46
2022/10/04 02:27:42;;;;;;;9.43;3.60;;;;;;;;;;5071999;28;20662;-46
2022/10/04 02:30:09;;;;;;;22.77;4.43;;;;;;;;;;5072123;28;20728;-46
2022/10/04 02:35:23;;;;;;;6.70;3.90;;;;;;;;;;5072066;28;20198;-46
2022/10/04 02:37:53;;;;;;;5.87;3.10;;;;;;;;;;5071900;28;20278;-46
2022/10/04 02:40:23;;;;;;;5.20;3.40;;;;;;;;;;5072085;28;20309;-46
2022/10/04 02:42:52;;;;;;;5.90;3.20;;;;;;;;;;5071901;28;20210;-46
2022/10/04 02:45:20;;;;;;;6.53;3.00;;;;;;;;;;5072020;28;20253;-46
2022/10/04 02:47:52;;;;;;;6.93;3.10;;;;;;;;;;5071809;28;20278;-46
2022/10/04 02:50:20;;;;;;;5.13;3.30;;;;;;;;;;5072055;28;20222;-47
2022/10/04 02:52:49;;;;;;;4.90;3.70;;;;;;;;;;5071805;28;20198;-46
2022/10/04 02:55:19;;;;;;;3.87;3.03;;;;;;;;;;5071936;28;20199;-46
2022/10/04 02:57:45;;;;;;;4.73;2.93;;;;;;;;;;5071598;28;20797;-46
2022/10/04 03:00:16;;;;;;;4.77;3.00;;;;;;;;;;5071791;28;20282;-46
2022/10/04 03:03:03;;;;;;;4.00;3.10;;;;;;;;;;5071456;28;20239;-46
2022/10/04 03:05:30;;;;;;;6.70;3.10;;;;;;;;;;5071759;28;20215;-46
2022/10/04 03:07:57;;;;;;;5.33;2.70;;;;;;;;;;5071580;28;20269;-45
2022/10/04 03:10:24;;;;;;;4.00;3.07;;;;;;;;;;5071768;28;20278;-45
2022/10/04 03:12:51;;;;;;;8.80;3.30;;;;;;;;;;5071598;28;20233;-46
2022/10/04 03:15:17;;;;;;;6.43;3.70;;;;;;;;;;5071566;28;20647;-45
2022/10/04 03:17:43;;;;;;;8.10;3.37;;;;;;;;;;5071537;28;20195;-46
2022/10/04 03:20:13;;;;;;;7.70;3.90;;;;;;;;;;5071615;28;20184;-46
2022/10/04 03:22:41;;;;;;;6.93;4.13;;;;;;;;;;5071355;28;20325;-46
2022/10/04 03:25:14;;;;;;;5.93;4.10;;;;;;;;;;5071554;28;20195;-45
2022/10/04 03:27:42;;;;;;;5.90;4.17;;;;;;;;;;5071650;28;20257;-46
2022/10/04 03:30:12;;;;;;;8.23;4.20;;;;;;;;;;5071467;28;20196;-46
2022/10/04 03:32:38;;;;;;;9.03;4.00;;;;;;;;;;5071361;28;20602;-46
2022/10/04 03:35:06;;;;;;;5.03;3.87;;;;;;;;;;5071395;28;20192;-46
2022/10/04 03:37:34;;;;;;;7.77;3.73;;;;;;;;;;5071452;28;20207;-46
2022/10/04 03:40:03;;;;;;;6.33;4.20;;;;;;;;;;5071342;28;20202;-46
2022/10/04 03:42:30;;;;;;;8.97;3.67;;;;;;;;;;5071395;28;20631;-46
2022/10/04 03:44:59;;;;;;;8.37;3.93;;;;;;;;;;5071262;28;20230;-46
2022/10/04 03:47:26;;;;;;;8.70;4.63;;;;;;;;;;5071249;28;20235;-46
2022/10/04 03:49:54;;;;;;;10.50;4.90;;;;;;;;;;5071231;28;20223;-46
2022/10/04 03:52:21;;;;;;;8.73;4.60;;;;;;;;;;5071330;28;20611;-46
2022/10/04 03:54:49;;;;;;;8.67;4.20;;;;;;;;;;5071178;28;20200;-46
2022/10/04 03:57:16;;;;;;;7.80;3.60;;;;;;;;;;5071262;28;20204;-46
2022/10/04 03:59:42;;;;;;;7.00;3.47;;;;;;;;;;5071232;28;20207;-46
2022/10/04 04:02:12;;;;;;;6.40;3.83;;;;;;;;;;5071161;28;20243;-46
2022/10/04 04:04:45;;;;;;;13.97;4.40;;;;;;;;;;5071002;28;20224;-46
2022/10/04 04:07:13;;;;;;;6.07;3.97;;;;;;;;;;5071096;28;20223;-46
2022/10/04 04:09:42;;;;;;;9.60;4.30;;;;;;;;;;5071444;28;20195;-46
2022/10/04 04:12:10;;;;;;;8.87;4.27;;;;;;;;;;5074807;28;20199;-46
2022/10/04 04:14:39;;;;;;;8.17;4.50;;;;;;;;;;5074637;28;20199;-46
2022/10/04 04:17:18;;;;;;;9.90;5.03;;;;;;;;;;5074695;28;20282;-46
2022/10/04 04:19:45;;;;;;;6.23;4.33;;;;;;;;;;5074404;28;20223;-46
2022/10/04 04:22:14;;;;;;;8.33;4.07;;;;;;;;;;5074608;28;20203;-46
2022/10/04 04:24:42;;;;;;;7.33;4.47;;;;;;;;;;5074332;28;20234;-46
2022/10/04 04:27:09;;;;;;;7.47;4.50;;;;;;;;;;5074602;28;20204;-46
2022/10/04 04:29:39;;;;;;;9.93;4.07;;;;;;;;;;5074333;28;20719;-45
2022/10/04 04:32:11;;;;;;;7.23;4.27;;;;;;;;;;5074368;28;20195;-47
2022/10/04 04:34:48;;;;;;;7.33;4.17;;;;;;;;;;5074270;28;20288;-45
2022/10/04 04:37:14;;;;;;;10.23;5.20;;;;;;;;;;5074309;28;20199;-47
2022/10/04 04:39:40;;;;;;;8.27;5.43;;;;;;;;;;5074079;28;20229;-47
2022/10/04 04:42:11;;;;;;;8.90;4.77;;;;;;;;;;5074277;28;20226;-47
2022/10/04 04:44:38;;;;;;;15.03;6.80;;;;;;;;;;5073995;28;20234;-47
2022/10/04 04:47:09;;;;;;;11.27;6.10;;;;;;;;;;5074125;28;20223;-47
2022/10/04 04:49:38;;;;;;;8.37;5.07;;;;;;;;;;5074087;28;20203;-47
2022/10/04 04:52:04;;;;;;;12.10;5.43;;;;;;;;;;5073896;28;20700;-48
2022/10/04 04:54:30;;;;;;;11.67;6.00;;;;;;;;;;5074118;28;20203;-47
2022/10/04 04:56:56;;;;;;;10.40;5.13;;;;;;;;;;5073771;28;20665;-47
2022/10/04 04:59:23;;;;;;;9.40;5.10;;;;;;;;;;5073880;28;20199;-47
2022/10/04 05:01:49;;;;;;;7.53;4.27;;;;;;;;;;5073491;28;20198;-47
2022/10/04 05:04:18;;;;;;;9.20;5.30;;;;;;;;;;5073753;28;20227;-47
2022/10/04 05:06:45;;;;;;;7.97;5.07;;;;;;;;;;5073389;28;20550;-48
2022/10/04 05:09:22;;;;;;;7.13;4.60;;;;;;;;;;5073515;28;20760;-47
2022/10/04 05:11:48;;;;;;;5.80;4.37;;;;;;;;;;5073801;28;20684;-47
2022/10/04 05:14:14;;;;;;;9.30;4.57;;;;;;;;;;5073499;28;20617;-47
2022/10/04 05:16:43;;;;;;;6.10;4.07;;;;;;;;;;5073396;28;20207;-47
2022/10/04 05:19:13;;;;;;;9.20;5.23;;;;;;;;;;5073037;28;20199;-47
2022/10/04 05:21:42;;;;;;;6.70;4.90;;;;;;;;;;5073113;28;20313;-47
2022/10/04 05:24:10;;;;;;;8.37;4.83;;;;;;;;;;5073210;28;20227;-47
2022/10/04 05:26:36;;;;;;;21.73;13.20;;;;;;;;;;5073325;28;20199;-47
2022/10/04 05:29:07;;;;;;;14.60;8.73;;;;;;;;;;5073472;28;20207;-47
2022/10/04 05:31:38;;;;;;;12.17;6.17;;;;;;;;;;5073097;28;20281;-46
2022/10/04 05:34:15;;;;;;;8.47;5.20;;;;;;;;;;5073041;28;20203;-47
2022/10/04 05:36:46;;;;;;;8.93;5.03;;;;;;;;;;5072967;28;20210;-47
2022/10/04 05:39:18;;;;;;;10.50;5.30;;;;;;;;;;5073133;28;20294;-47
2022/10/04 05:41:47;;;;;;;11.57;5.17;;;;;;;;;;5072811;28;20196;-46
2022/10/04 05:44:24;;;;;;;11.27;6.07;;;;;;;;;;5072931;28;20239;-46
2022/10/04 05:46:51;;;;;;;10.57;6.07;;;;;;;;;;5072920;28;20223;-47
2022/10/04 05:49:18;;;;;;;12.47;6.67;;;;;;;;;;5072813;28;20202;-47
2022/10/04 05:51:49;;;;;;;9.87;6.10;;;;;;;;;;5072785;28;20207;-46
2022/10/04 05:54:19;;;;;;;12.73;7.87;;;;;;;;;;5072799;28;20626;-46
2022/10/04 05:57:02;;;;;;;18.10;11.57;;;;;;;;;;5072625;28;20205;-46
2022/10/04 05:59:44;;;;;;;30.70;22.80;;;;;;;;;;5072874;28;20274;-46
2022/10/04 06:02:16;;;;;;;16.93;11.07;;;;;;;;;;5070291;28;20261;-46
2022/10/04 06:04:53;;;;;;;11.13;8.30;;;;;;;;;;5072499;28;20211;-47
2022/10/04 06:07:25;;;;;;;10.47;7.40;;;;;;;;;;5072666;28;20233;-47
2022/10/04 06:09:56;;;;;;;13.07;8.43;;;;;;;;;;5072445;28;20200;-46
2022/10/04 06:12:29;;;;;;;12.83;6.90;;;;;;;;;;5072551;28;20203;-47
2022/10/04 06:15:07;;;;;;;11.00;6.77;;;;;;;;;;5072364;28;20556;-47
2022/10/04 06:17:39;;;;;;;14.77;7.23;;;;;;;;;;5072282;28;20733;-46
2022/10/04 06:20:13;;;;;;;14.57;7.20;;;;;;;;;;5072249;28;20203;-46
2022/10/04 06:22:44;;;;;;;15.27;8.23;;;;;;;;;;5072220;28;20657;-46
2022/10/04 06:25:12;;;;;;;11.00;7.03;;;;;;;;;;5071983;28;20305;-46
2022/10/04 06:27:40;;;;;;;13.13;7.63;;;;;;;;;;5072106;28;20203;-46
2022/10/04 06:30:12;;;;;;;12.67;6.30;;;;;;;;;;5071947;28;20537;-45
2022/10/04 06:33:03;;;;;;;13.10;7.13;;;;;;;;;;5071687;28;20243;-46
2022/10/04 06:35:42;;;;;;;12.47;6.60;;;;;;;;;;5072108;28;20196;-46
2022/10/04 06:38:34;;;;;;;13.73;6.67;;;;;;;;;;5071923;28;20803;-46
2022/10/04 06:41:08;;;;;;;10.03;6.53;;;;;;;;;;5071970;28;20576;-46
2022/10/04 06:43:41;;;;;;;10.20;7.50;;;;;;;;;;5071916;28;20265;-46
2022/10/04 06:46:10;;;;;;;13.17;6.03;;;;;;;;;;5072058;28;20231;-46
2022/10/04 06:48:55;;;;;;;9.80;6.00;;;;;;;;;;5071789;28;20270;-46
2022/10/04 06:51:26;;;;;;;14.07;6.20;;;;;;;;;;5071687;28;20661;-46
2022/10/04 06:53:59;;;;;;;6.90;5.30;;;;;;;;;;5071613;28;20202;-46
2022/10/04 06:56:44;;;;;;;12.50;6.27;;;;;;;;;;5071849;28;20249;-46
2022/10/04 06:59:25;;;;;;;9.43;5.93;;;;;;;;;;5071900;28;20299;-46
2022/10/04 07:01:52;;;;;;;7.63;5.00;;;;;;;;;;5069139;28;20206;-46
2022/10/04 07:04:26;;;;;;;11.77;5.63;;;;;;;;;;5071526;28;20712;-47
2022/10/04 07:07:22;;;;;;;8.63;4.97;;;;;;;;;;5071571;28;20199;-46
2022/10/04 07:09:46;;;;;;;8.23;4.60;;;;;;;;;;5071388;28;20464;-46
2022/10/04 07:12:16;;;;;;;7.13;4.67;;;;;;;;;;5071525;28;20192;-46
2022/10/04 07:14:44;;;;;;;7.73;4.67;;;;;;;;;;5071631;28;20206;-46
2022/10/04 07:17:13;;;;;;;6.17;4.60;;;;;;;;;;5071482;28;20289;-47
2022/10/04 07:19:41;;;;;;;10.67;5.07;;;;;;;;;;5071652;28;20251;-45
2022/10/04 07:22:14;;;;;;;11.77;5.60;;;;;;;;;;5071559;28;20290;-46
2022/10/04 07:24:46;;;;;;;7.73;5.27;;;;;;;;;;5071450;28;20482;-46
2022/10/04 07:27:16;;;;;;;9.83;5.10;;;;;;;;;;5071682;28;20472;-46
2022/10/04 07:29:45;;;;;;;10.00;5.00;;;;;;;;;;5071468;28;20290;-46
2022/10/04 07:32:13;;;;;;;7.43;4.60;;;;;;;;;;5071495;28;20200;-46
2022/10/04 07:34:44;;;;;;;10.83;4.03;;;;;;;;;;5071564;28;20204;-47
2022/10/04 07:37:14;;;;;;;6.33;4.27;;;;;;;;;;5071295;28;20203;-46
2022/10/04 07:39:44;;;;;;;9.50;4.07;;;;;;;;;;5071388;28;20248;-46
2022/10/04 07:42:15;;;;;;;5.33;3.83;;;;;;;;;;5071302;28;20572;-46
2022/10/04 07:44:44;;;;;;;5.80;3.63;;;;;;;;;;5071484;28;20726;-46
2022/10/04 07:47:13;;;;;;;9.30;4.23;;;;;;;;;;5074990;28;20293;-46
2022/10/04 07:49:40;;;;;;;9.33;4.20;;;;;;;;;;5075191;28;20282;-46
2022/10/04 07:52:19;;;;;;;7.43;4.23;;;;;;;;;;5075022;28;20192;-46
2022/10/04 07:54:48;;;;;;;5.93;3.23;;;;;;;;;;5074869;28;20184;-46
2022/10/04 07:57:18;;;;;;;7.10;3.60;;;;;;;;;;5075079;28;20289;-46
2022/10/04 07:59:48;;;;;;;6.73;3.00;;;;;;;;;;5074892;28;20198;-46
2022/10/04 08:02:21;;;;;;;7.23;3.57;;;;;;;;;;5074563;28;20713;-46
2022/10/04 08:04:54;;;;;;;8.73;3.33;;;;;;;;;;5074723;28;20227;-46
2022/10/04 08:07:24;;;;;;;8.07;3.67;;;;;;;;;;5074691;28;20594;-46
2022/10/04 08:09:57;;;;;;;5.50;3.30;;;;;;;;;;5074819;28;20195;-46
2022/10/04 08:12:25;;;;;;;6.13;3.30;;;;;;;;;;5074633;28;20207;-46
2022/10/04 08:15:00;;;;;;;6.63;3.07;;;;;;;;;;5074438;28;20600;-46
2022/10/04 08:17:40;;;;;;;7.77;3.43;;;;;;;;;;5074437;28;20209;-46
2022/10/04 08:20:18;;;;;;;8.90;3.53;;;;;;;;;;5074360;28;20214;-47
2022/10/04 08:22:51;;;;;;;8.20;3.50;;;;;;;;;;5074359;28;20221;-47
2022/10/04 08:25:21;;;;;;;6.70;2.70;;;;;;;;;;5074484;28;20230;-47
2022/10/04 08:30:47;;;;;;;6.43;3.30;;;;;;;;;;5074384;28;20696;-47
2022/10/04 08:33:21;;;;;;;5.47;3.13;;;;;;;;;;5074452;28;20203;-46
2022/10/04 08:35:55;;;;;;;7.00;3.10;;;;;;;;;;5074343;28;20279;-47
2022/10/04 08:38:33;;;;;;;6.57;3.20;;;;;;;;;;5074478;28;20200;-47
2022/10/04 08:41:19;;;;;;;7.57;3.30;;;;;;;;;;5074218;28;20196;-47
2022/10/04 08:43:58;;;;;;;6.90;3.67;;;;;;;;;;5074083;28;20226;-47
2022/10/04 08:46:33;;;;;;;10.47;3.10;;;;;;;;;;5074212;28;20199;-47
2022/10/04 08:49:04;;;;;;;6.93;3.53;;;;;;;;;;5073926;28;20681;-48
2022/10/04 08:52:00;;;;;;;9.03;3.10;;;;;;;;;;5074092;28;20203;-47
2022/10/04 08:54:39;;;;;;;7.20;3.10;;;;;;;;;;5074128;28;20278;-47
2022/10/04 08:57:14;;;;;;;5.70;3.00;;;;;;;;;;5073585;28;20234;-47
2022/10/04 09:00:04;;;;;;;6.20;2.97;;;;;;;;;;5073953;28;20199;-48
2022/10/04 09:02:40;;;;;;;6.70;2.73;;;;;;;;;;5073555;28;20250;-48
2022/10/04 09:05:19;;;;;;;6.17;3.30;;;;;;;;;;5073554;28;20235;-47
2022/10/04 09:08:00;;;;;;;6.63;3.33;;;;;;;;;;5073895;28;20678;-47
2022/10/04 09:10:44;;;;;;;8.03;3.00;;;;;;;;;;5060739;28;20565;-47
2022/10/04 09:13:33;;;;;;;6.17;2.90;;;;;;;;;;5073507;28;20614;-47
2022/10/04 09:16:08;;;;;;;6.43;3.00;;;;;;;;;;5058212;28;20257;-47
2022/10/04 09:18:50;;;;;;;6.93;3.50;;;;;;;;;;5073417;28;20206;-47
2022/10/04 09:21:25;;;;;;;6.33;2.80;;;;;;;;;;5073515;28;20208;-47
2022/10/04 09:24:08;;;;;;;5.73;2.80;;;;;;;;;;5073310;28;20222;-47
2022/10/04 09:26:40;;;;;;;6.97;3.10;;;;;;;;;;5073474;28;20200;-47
2022/10/04 09:29:12;;;;;;;8.07;3.30;;;;;;;;;;5073207;28;20195;-47
2022/10/04 09:31:56;;;;;;;4.70;2.77;;;;;;;;;;5073215;28;20313;-47
2022/10/04 09:34:29;;;;;;;6.23;2.77;;;;;;;;;;5073290;28;20203;-47
2022/10/04 09:37:16;;;;;;;5.90;3.17;;;;;;;;;;5073046;28;20203;-47
2022/10/04 09:39:50;;;;;;;8.60;3.37;;;;;;;;;;5073185;28;20196;-47
2022/10/04 09:42:32;;;;;;;5.10;3.10;;;;;;;;;;5073019;28;20203;-47
2022/10/04 09:45:13;;;;;;;6.20;2.90;;;;;;;;;;5072836;28;20231;-47
2022/10/04 09:47:47;;;;;;;8.90;2.40;;;;;;;;;;5072933;28;20208;-47
2022/10/04 09:50:34;;;;;;;7.73;3.03;;;;;;;;;;5072788;28;20199;-47
2022/10/04 09:53:08;;;;;;;8.13;3.20;;;;;;;;;;5072805;28;20209;-48
2022/10/04 09:55:42;;;;;;;9.03;3.00;;;;;;;;;;5072798;28;20190;-48
2022/10/04 09:58:21;;;;;;;9.70;2.77;;;;;;;;;;5072705;28;20672;-47
2022/10/04 10:00:51;;;;;;;9.60;2.50;;;;;;;;;;5072471;28;20547;-47
2022/10/04 10:03:34;;;;;;;4.73;2.67;;;;;;;;;;5072270;28;20246;-47
2022/10/04 10:06:15;;;;;;;8.80;2.50;;;;;;;;;;5072548;28;20211;-47
2022/10/04 10:08:48;;;;;;;5.30;2.33;;;;;;;;;;5071825;28;20218;-47
2022/10/04 10:14:16;;;;;;;7.50;2.93;;;;;;;;;;5072527;28;20265;-47
2022/10/04 10:16:50;;;;;;;5.43;2.77;;;;;;;;;;5072431;28;20404;-47
2022/10/04 10:19:25;;;;;;;5.70;2.50;;;;;;;;;;5072458;28;20338;-48
2022/10/04 10:22:07;;;;;;;6.67;2.93;;;;;;;;;;5072514;28;20564;-47
2022/10/04 10:24:51;;;;;;;7.10;2.60;;;;;;;;;;5072117;28;20818;-48
2022/10/04 10:27:26;;;;;;;4.50;1.93;;;;;;;;;;5072072;28;20203;-47
2022/10/04 10:30:05;;;;;;;5.70;2.63;;;;;;;;;;5071997;28;20252;-47
2022/10/04 10:32:38;;;;;;;6.67;2.37;;;;;;;;;;5071892;28;20230;-47
2022/10/04 10:35:24;;;;;;;6.73;2.77;;;;;;;;;;5071917;28;20676;-47
2022/10/04 10:38:10;;;;;;;10.23;2.50;;;;;;;;;;5072020;28;20284;-47
2022/10/04 10:40:44;;;;;;;7.37;2.47;;;;;;;;;;5072091;28;20207;-47
2022/10/04 10:43:19;;;;;;;2.97;2.03;;;;;;;;;;5071971;28;20261;-48
2022/10/04 10:46:02;;;;;;;8.23;2.63;;;;;;;;;;5071985;28;20191;-48
2022/10/04 10:48:34;;;;;;;6.00;2.40;;;;;;;;;;5059990;28;20203;-48
2022/10/04 10:51:02;;;;;;;6.73;2.30;;;;;;;;;;5071785;28;20199;-48
2022/10/04 10:53:44;;;;;;;7.77;2.60;;;;;;;;;;5071815;28;20199;-48
2022/10/04 10:56:27;;;;;;;7.80;2.20;;;;;;;;;;5071828;28;20206;-48
2022/10/04 10:59:11;;;;;;;7.47;2.53;;;;;;;;;;5071842;28;20529;-48
2022/10/04 11:01:52;;;;;;;6.63;2.80;;;;;;;;;;5071710;28;20202;-48
2022/10/04 11:04:43;;;;;;;7.33;2.47;;;;;;;;;;5058838;28;20223;-48
2022/10/04 11:07:21;;;;;;;5.03;2.67;;;;;;;;;;5056225;28;20207;-48
2022/10/04 11:10:06;;;;;;;5.00;2.43;;;;;;;;;;5071794;28;20216;-48
2022/10/04 11:12:52;;;;;;;4.93;2.40;;;;;;;;;;5071614;28;20290;-48
2022/10/04 11:15:32;;;;;;;6.37;2.53;;;;;;;;;;5071745;28;20191;-48
2022/10/04 11:18:14;;;;;;;7.10;2.43;;;;;;;;;;5071389;28;20198;-48
2022/10/04 11:20:47;;;;;;;4.80;2.40;;;;;;;;;;5075558;28;20808;-48
2022/10/04 11:23:31;;;;;;;4.97;2.30;;;;;;;;;;5075836;28;20236;-48
2022/10/04 11:26:09;;;;;;;7.07;2.53;;;;;;;;;;5075624;28;20202;-49
2022/10/04 11:28:45;;;;;;;4.07;2.57;;;;;;;;;;5075689;28;20209;-48
2022/10/04 11:31:30;;;;;;;6.73;2.97;;;;;;;;;;5075535;28;20289;-48
2022/10/04 11:34:17;;;;;;;4.00;2.30;;;;;;;;;;5075364;28;20203;-47
2022/10/04 11:36:50;;;;;;;5.43;2.50;;;;;;;;;;5049720;28;20676;-48
2022/10/04 11:39:33;;;;;;;5.87;3.00;;;;;;;;;;5075348;28;20253;-48
2022/10/04 11:42:06;;;;;;;5.23;2.37;;;;;;;;;;5075598;28;20263;-48
2022/10/04 11:44:54;;;;;;;3.97;2.13;;;;;;;;;;5075220;28;20753;-48
2022/10/04 11:47:28;;;;;;;6.77;2.30;;;;;;;;;;5075245;28;20674;-48
2022/10/04 11:50:02;;;;;;;4.37;2.47;;;;;;;;;;5075021;28;20631;-49
2022/10/04 11:52:37;;;;;;;6.60;2.50;;;;;;;;;;5074972;28;20673;-48
2022/10/04 11:55:19;;;;;;;7.47;2.37;;;;;;;;;;5075000;28;20192;-48
2022/10/04 11:57:50;;;;;;;5.77;2.37;;;;;;;;;;5075030;28;20229;-48
2022/10/04 12:00:19;;;;;;;6.37;2.17;;;;;;;;;;5074927;28;20215;-48
2022/10/04 12:03:02;;;;;;;7.77;2.67;;;;;;;;;;5074691;28;20235;-48
2022/10/04 12:05:37;;;;;;;4.60;2.10;;;;;;;;;;5074936;28;20233;-48
2022/10/04 12:08:16;;;;;;;7.40;2.50;;;;;;;;;;5074735;28;20680;-48
2022/10/04 12:10:43;;;;;;;5.37;2.50;;;;;;;;;;5074766;28;20286;-47
2022/10/04 12:13:21;;;;;;;4.77;2.63;;;;;;;;;;5074736;28;20199;-49
2022/10/04 12:15:59;;;;;;;4.57;2.50;;;;;;;;;;5074739;28;20200;-48
2022/10/04 12:18:49;;;;;;;7.37;3.20;;;;;;;;;;5074676;28;20685;-48
2022/10/04 12:21:30;;;;;;;4.47;2.70;;;;;;;;;;5074553;28;20223;-48
2022/10/04 12:24:03;;;;;;;3.80;2.37;;;;;;;;;;5074330;28;20215;-48
2022/10/04 12:26:37;;;;;;;4.43;2.30;;;;;;;;;;5074559;28;20212;-48
2022/10/04 12:29:09;;;;;;;5.90;2.37;;;;;;;;;;5075581;28;20206;-48
2022/10/04 12:31:41;;;;;;;6.70;2.40;;;;;;;;;;5073603;28;20288;-48
2022/10/04 12:34:13;;;;;;;4.20;2.10;;;;;;;;;;5074269;28;20249;-47
2022/10/04 12:36:57;;;;;;;4.67;2.03;;;;;;;;;;5074487;28;20249;-48
2022/10/04 12:39:33;;;;;;;6.47;2.33;;;;;;;;;;5074372;28;20259;-48
2022/10/04 12:42:07;;;;;;;7.47;2.20;;;;;;;;;;5074244;28;20200;-48
2022/10/04 12:44:40;;;;;;;3.30;2.00;;;;;;;;;;5074131;28;20273;-48
2022/10/04 12:47:25;;;;;;;4.70;2.00;;;;;;;;;;5074087;28;20298;-48
2022/10/04 12:49:56;;;;;;;5.07;2.30;;;;;;;;;;5074078;28;20213;-48
2022/10/04 12:52:24;;;;;;;3.57;2.07;;;;;;;;;;5074190;28;20231;-48
2022/10/04 12:54:52;;;;;;;4.50;2.10;;;;;;;;;;5074168;28;20253;-48
2022/10/04 12:57:32;;;;;;;4.73;2.07;;;;;;;;;;5073925;28;20196;-48
2022/10/04 13:00:02;;;;;;;3.43;2.00;;;;;;;;;;5073832;28;20196;-48
2022/10/04 13:02:50;;;;;;;4.50;1.97;;;;;;;;;;5073778;28;20239;-48
2022/10/04 13:05:23;;;;;;;4.60;2.10;;;;;;;;;;5073628;28;20273;-48
2022/10/04 13:07:58;;;;;;;2.37;1.50;;;;;;;;;;5073601;28;20212;-48
2022/10/04 13:10:29;;;;;;;5.00;2.10;;;;;;;;;;5073588;28;20645;-48
2022/10/04 13:13:13;;;;;;;6.10;1.80;;;;;;;;;;5073452;28;20227;-48
2022/10/04 13:15:42;;;;;;;4.60;2.20;;;;;;;;;;5073617;28;20195;-48
2022/10/04 13:18:17;;;;;;;2.73;1.80;;;;;;;;;;5073390;28;20203;-48
2022/10/04 13:20:50;;;;;;;3.10;1.97;;;;;;;;;;5073309;28;20206;-48
2022/10/04 13:23:23;;;;;;;5.10;2.60;;;;;;;;;;5073371;28;20284;-48
2022/10/04 13:26:14;;;;;;;5.10;2.13;;;;;;;;;;5073328;28;20693;-48
2022/10/04 13:28:45;;;;;;;5.70;2.00;;;;;;;;;;5070068;28;20204;-49
2022/10/04 13:31:13;;;;;;;5.30;2.30;;;;;;;;;;5073146;28;20204;-49
2022/10/04 13:33:44;;;;;;;4.97;2.27;;;;;;;;;;5073269;28;20703;-49
2022/10/04 13:36:17;;;;;;;7.20;2.23;;;;;;;;;;5073166;28;20691;-48
2022/10/04 13:39:02;;;;;;;5.60;1.90;;;;;;;;;;5073125;28;20299;-48
2022/10/04 13:41:36;;;;;;;4.00;2.00;;;;;;;;;;5073041;28;20219;-49
2022/10/04 13:44:19;;;;;;;5.10;1.80;;;;;;;;;;5071814;28;20219;-49
2022/10/04 13:46:53;;;;;;;4.27;1.90;;;;;;;;;;5072842;28;20203;-48
2022/10/04 13:49:23;;;;;;;3.30;2.00;;;;;;;;;;5072879;28;20632;-48
2022/10/04 13:57:42;;;;;;;5.10;2.07;;;;;;;;;;5072836;28;20669;-48
2022/10/04 14:00:11;;;;;;;4.20;1.80;;;;;;;;;;5072579;28;20669;-48
2022/10/04 14:02:58;;;;;;;4.70;1.90;;;;;;;;;;5072501;28;20234;-49
2022/10/04 14:05:45;;;;;;;5.50;2.03;;;;;;;;;;5046895;28;20258;-49
2022/10/04 14:08:28;;;;;;;3.97;1.77;;;;;;;;;;5046619;28;20708;-48
2022/10/04 14:11:07;;;;;;;4.43;1.90;;;;;;;;;;5041559;28;20230;-49
2022/10/04 14:13:50;;;;;;;4.47;1.77;;;;;;;;;;5072498;28;20268;-48
2022/10/04 14:16:32;;;;;;;4.87;1.80;;;;;;;;;;5072304;28;20195;-48
2022/10/04 14:19:12;;;;;;;3.13;1.77;;;;;;;;;;5072172;28;20626;-48
2022/10/04 14:21:58;;;;;;;2.77;1.60;;;;;;;;;;5072328;28;20716;-48
2022/10/04 14:24:40;;;;;;;5.60;1.90;;;;;;;;;;5063305;28;20692;-48
2022/10/04 14:27:21;;;;;;;6.03;2.20;;;;;;;;;;5072185;28;20191;-48
2022/10/04 14:30:06;;;;;;;5.20;1.97;;;;;;;;;;5072520;28;20210;-48
2022/10/04 14:32:45;;;;;;;5.43;1.80;;;;;;;;;;5072433;28;20202;-48
2022/10/04 14:35:13;;;;;;;3.60;1.70;;;;;;;;;;5072059;28;20202;-49
2022/10/04 14:37:49;;;;;;;6.03;2.10;;;;;;;;;;5072083;28;20253;-48
2022/10/04 14:40:30;;;;;;;4.07;2.00;;;;;;;;;;5071976;28;20566;-47
2022/10/04 14:43:16;;;;;;;5.37;1.93;;;;;;;;;;5072047;28;20194;-48
2022/10/04 14:45:51;;;;;;;4.23;1.97;;;;;;;;;;5071987;28;20261;-48
2022/10/04 14:48:38;;;;;;;5.27;2.10;;;;;;;;;;5071930;28;20619;-48
2022/10/04 14:51:12;;;;;;;4.33;1.93;;;;;;;;;;5071906;28;20210;-49
2022/10/04 14:53:47;;;;;;;5.67;1.93;;;;;;;;;;5071641;28;20193;-48
2022/10/04 14:56:25;;;;;;;3.03;1.87;;;;;;;;;;5072089;28;20283;-48
2022/10/04 14:58:59;;;;;;;9.30;2.27;;;;;;;;;;5071826;28;20211;-48
2022/10/04 15:01:26;;;;;;;3.97;1.90;;;;;;;;;;5071928;28;20195;-48
2022/10/04 15:04:05;;;;;;;6.13;2.13;;;;;;;;;;5071473;28;20299;-48
2022/10/04 15:06:38;;;;;;;4.47;2.13;;;;;;;;;;5071609;28;20660;-48
2022/10/04 15:09:25;;;;;;;4.93;2.30;;;;;;;;;;5071334;28;20230;-48
2022/10/04 15:11:54;;;;;;;5.80;2.00;;;;;;;;;;5071931;28;20203;-48
2022/10/04 15:14:34;;;;;;;7.43;2.40;;;;;;;;;;5071582;28;20245;-48
2022/10/04 15:17:03;;;;;;;3.33;2.03;;;;;;;;;;5071522;28;20681;-47
2022/10/04 15:19:30;;;;;;;3.63;1.97;;;;;;;;;;5071689;28;20203;-48
2022/10/04 15:22:05;;;;;;;5.80;2.33;;;;;;;;;;5071487;28;20197;-48
2022/10/04 15:24:43;;;;;;;3.87;2.20;;;;;;;;;;5071441;28;20695;-48
2022/10/04 15:27:27;;;;;;;4.97;1.80;;;;;;;;;;5071450;28;20282;-48
2022/10/04 15:30:01;;;;;;;2.90;1.90;;;;;;;;;;5071477;28;20315;-50
2022/10/04 15:32:35;;;;;;;4.67;2.13;;;;;;;;;;5071468;28;20258;-47